sensor_id;sensor_type;location;lat;lon;timestamp;pressure;altitude;pressure_sealevel;temperature;humidity
76122;BME280;64853;53.200;6.080;2022-11-20T00:00:08;101369.50;;;18.71;41.48
76122;BME280;64853;53.200;6.080;2022-11-20T00:02:36;101368.94;;;18.69;41.22
76122;BME280;64853;53.200;6.080;2022-11-20T00:05:03;101374.47;;;18.69;41.26
76122;BME280;64853;53.200;6.080;2022-11-20T00:07:29;101362.88;;;18.67;41.20
76122;BME280;64853;53.200;6.080;2022-11-20T00:09:56;101367.84;;;18.65;41.22
76122;BME280;64853;53.200;6.080;2022-11-20T00:12:22;101365.34;;;18.64;41.32
76122;BME280;64853;53.200;6.080;2022-11-20T00:14:48;101358.44;;;18.61;41.40
76122;BME280;64853;53.200;6.080;2022-11-20T00:17:15;101352.13;;;18.60;41.41
76122;BME280;64853;53.200;6.080;2022-11-20T00:19:43;101354.34;;;18.58;41.27
76122;BME280;64853;53.200;6.080;2022-11-20T00:22:09;101357.38;;;18.57;41.31
76122;BME280;64853;53.200;6.080;2022-11-20T00:24:35;101357.91;;;18.54;41.24
76122;BME280;64853;53.200;6.080;2022-11-20T00:27:02;101355.44;;;18.52;41.44
76122;BME280;64853;53.200;6.080;2022-11-20T00:29:28;101352.94;;;18.51;41.42
76122;BME280;64853;53.200;6.080;2022-11-20T00:31:55;101344.94;;;18.49;41.42
76122;BME280;64853;53.200;6.080;2022-11-20T00:34:21;101351.84;;;18.47;41.25
76122;BME280;64853;53.200;6.080;2022-11-20T00:36:49;101347.44;;;18.46;41.36
76122;BME280;64853;53.200;6.080;2022-11-20T00:39:15;101347.72;;;18.44;41.26
76122;BME280;64853;53.200;6.080;2022-11-20T00:41:42;101350.75;;;18.42;41.10
76122;BME280;64853;53.200;6.080;2022-11-20T00:44:08;101349.09;;;18.41;41.37
76122;BME280;64853;53.200;6.080;2022-11-20T00:46:35;101351.28;;;18.39;41.15
76122;BME280;64853;53.200;6.080;2022-11-20T00:49:01;101343.28;;;18.38;41.32
76122;BME280;64853;53.200;6.080;2022-11-20T00:51:28;101344.34;;;18.37;41.23
76122;BME280;64853;53.200;6.080;2022-11-20T00:53:56;101337.44;;;18.34;41.33
76122;BME280;64853;53.200;6.080;2022-11-20T00:56:24;101339.66;;;18.32;41.46
76122;BME280;64853;53.200;6.080;2022-11-20T00:58:50;101341.59;;;18.32;41.16
76122;BME280;64853;53.200;6.080;2022-11-20T01:01:18;101345.72;;;18.29;41.25
76122;BME280;64853;53.200;6.080;2022-11-20T01:03:47;101339.41;;;18.29;41.34
76122;BME280;64853;53.200;6.080;2022-11-20T01:06:16;101341.63;;;18.27;41.32
76122;BME280;64853;53.200;6.080;2022-11-20T01:08:44;101345.47;;;18.25;41.15
76122;BME280;64853;53.200;6.080;2022-11-20T01:11:14;101342.97;;;18.24;41.33
76122;BME280;64853;53.200;6.080;2022-11-20T01:13:41;101338.00;;;18.21;41.31
76122;BME280;64853;53.200;6.080;2022-11-20T01:16:10;101330.81;;;18.20;41.30
76122;BME280;64853;53.200;6.080;2022-11-20T01:18:38;101339.38;;;18.18;41.19
76122;BME280;64853;53.200;6.080;2022-11-20T01:21:08;101334.13;;;18.17;41.33
76122;BME280;64853;53.200;6.080;2022-11-20T01:23:36;101329.75;;;18.16;41.25
76122;BME280;64853;53.200;6.080;2022-11-20T01:26:05;101327.25;;;18.14;41.26
76122;BME280;64853;53.200;6.080;2022-11-20T01:28:34;101322.03;;;18.13;41.20
76122;BME280;64853;53.200;6.080;2022-11-20T01:31:00;101323.97;;;18.12;41.18
76122;BME280;64853;53.200;6.080;2022-11-20T01:33:27;101321.47;;;18.11;41.21
76122;BME280;64853;53.200;6.080;2022-11-20T01:36:03;101322.03;;;18.07;41.35
76122;BME280;64853;53.200;6.080;2022-11-20T01:38:30;101325.88;;;18.06;41.14
76122;BME280;64853;53.200;6.080;2022-11-20T01:40:56;101321.44;;;18.05;41.32
76122;BME280;64853;53.200;6.080;2022-11-20T01:43:24;101329.72;;;18.05;41.05
76122;BME280;64853;53.200;6.080;2022-11-20T01:46:04;101326.69;;;18.02;41.04
76122;BME280;64853;53.200;6.080;2022-11-20T01:48:35;101316.75;;;18.01;41.17
76122;BME280;64853;53.200;6.080;2022-11-20T01:51:04;101311.50;;;17.99;41.27
76122;BME280;64853;53.200;6.080;2022-11-20T01:53:34;101313.72;;;17.97;41.22
76122;BME280;64853;53.200;6.080;2022-11-20T01:56:03;101304.38;;;17.93;41.14
76122;BME280;64853;53.200;6.080;2022-11-20T01:58:33;101310.97;;;17.92;41.13
76122;BME280;64853;53.200;6.080;2022-11-20T02:01:04;101308.22;;;17.92;41.24
76122;BME280;64853;53.200;6.080;2022-11-20T02:03:31;101304.91;;;17.90;41.20
76122;BME280;64853;53.200;6.080;2022-11-20T02:06:04;101296.91;;;17.88;41.20
76122;BME280;64853;53.200;6.080;2022-11-20T02:08:32;101289.75;;;17.87;41.34
76122;BME280;64853;53.200;6.080;2022-11-20T02:10:58;101299.38;;;17.85;41.13
76122;BME280;64853;53.200;6.080;2022-11-20T02:13:25;101290.28;;;17.84;41.36
76122;BME280;64853;53.200;6.080;2022-11-20T02:16:14;101279.53;;;17.83;41.17
76122;BME280;64853;53.200;6.080;2022-11-20T02:18:41;101286.13;;;17.82;41.38
76122;BME280;64853;53.200;6.080;2022-11-20T02:24:03;101272.91;;;17.79;41.26
76122;BME280;64853;53.200;6.080;2022-11-20T02:26:32;101267.13;;;17.75;41.18
76122;BME280;64853;53.200;6.080;2022-11-20T02:29:00;101267.66;;;17.72;41.50
76122;BME280;64853;53.200;6.080;2022-11-20T02:31:28;101269.34;;;17.73;41.29
76122;BME280;64853;53.200;6.080;2022-11-20T02:33:55;101256.91;;;17.70;41.37
76122;BME280;64853;53.200;6.080;2022-11-20T02:36:24;101256.91;;;17.70;41.37
76122;BME280;64853;53.200;6.080;2022-11-20T02:38:52;101266.31;;;17.69;41.31
76122;BME280;64853;53.200;6.080;2022-11-20T02:41:20;101264.63;;;17.68;41.34
76122;BME280;64853;53.200;6.080;2022-11-20T02:43:47;101253.91;;;17.67;41.50
76122;BME280;64853;53.200;6.080;2022-11-20T02:46:13;101261.34;;;17.66;41.40
76122;BME280;64853;53.200;6.080;2022-11-20T02:48:40;101258.84;;;17.70;41.21
76122;BME280;64853;53.200;6.080;2022-11-20T02:51:06;101254.44;;;17.69;41.44
76122;BME280;64853;53.200;6.080;2022-11-20T02:53:33;101252.81;;;17.68;41.41
76122;BME280;64853;53.200;6.080;2022-11-20T02:55:59;101256.66;;;17.67;41.36
76122;BME280;64853;53.200;6.080;2022-11-20T02:58:27;101246.19;;;17.64;41.29
76122;BME280;64853;53.200;6.080;2022-11-20T03:00:53;101248.66;;;17.65;41.40
76122;BME280;64853;53.200;6.080;2022-11-20T03:03:20;101259.66;;;17.65;41.25
76122;BME280;64853;53.200;6.080;2022-11-20T03:05:46;101252.81;;;17.68;41.22
76122;BME280;64853;53.200;6.080;2022-11-20T03:08:12;101253.06;;;17.66;41.22
76122;BME280;64853;53.200;6.080;2022-11-20T03:10:39;101263.50;;;17.64;41.23
76122;BME280;64853;53.200;6.080;2022-11-20T03:13:05;101252.78;;;17.63;41.15
76122;BME280;64853;53.200;6.080;2022-11-20T03:15:35;101239.00;;;17.63;41.28
76122;BME280;64853;53.200;6.080;2022-11-20T03:18:01;101251.69;;;17.64;41.28
76122;BME280;64853;53.200;6.080;2022-11-20T03:20:28;101254.97;;;17.66;41.12
76122;BME280;64853;53.200;6.080;2022-11-20T03:22:54;101252.22;;;17.66;41.16
76122;BME280;64853;53.200;6.080;2022-11-20T03:25:21;101249.75;;;17.64;41.36
76122;BME280;64853;53.200;6.080;2022-11-20T03:27:48;101242.88;;;17.62;41.18
76122;BME280;64853;53.200;6.080;2022-11-20T03:30:14;101237.38;;;17.62;41.19
76122;BME280;64853;53.200;6.080;2022-11-20T03:32:42;101232.69;;;17.62;41.21
76122;BME280;64853;53.200;6.080;2022-11-20T03:35:09;101230.47;;;17.64;41.16
76122;BME280;64853;53.200;6.080;2022-11-20T03:37:36;101224.97;;;17.64;41.23
76122;BME280;64853;53.200;6.080;2022-11-20T03:40:03;101220.00;;;17.61;41.35
76122;BME280;64853;53.200;6.080;2022-11-20T03:42:29;101219.19;;;17.61;40.97
76122;BME280;64853;53.200;6.080;2022-11-20T03:45:11;101226.34;;;17.62;41.11
76122;BME280;64853;53.200;6.080;2022-11-20T03:47:38;101220.00;;;17.61;41.03
76122;BME280;64853;53.200;6.080;2022-11-20T03:50:06;101215.34;;;17.62;41.25
76122;BME280;64853;53.200;6.080;2022-11-20T03:52:33;101211.75;;;17.61;41.10
76122;BME280;64853;53.200;6.080;2022-11-20T03:54:59;101203.75;;;17.60;41.03
76122;BME280;64853;53.200;6.080;2022-11-20T03:57:26;101190.81;;;17.60;40.94
76122;BME280;64853;53.200;6.080;2022-11-20T03:59:52;101183.09;;;17.62;41.19
76122;BME280;64853;53.200;6.080;2022-11-20T04:02:19;101185.88;;;17.62;41.07
76122;BME280;64853;53.200;6.080;2022-11-20T04:04:45;101192.47;;;17.61;40.94
76122;BME280;64853;53.200;6.080;2022-11-20T04:07:13;101180.63;;;17.61;41.02
76122;BME280;64853;53.200;6.080;2022-11-20T04:09:39;101178.16;;;17.59;41.03
76122;BME280;64853;53.200;6.080;2022-11-20T04:12:06;101181.44;;;17.61;41.01
76122;BME280;64853;53.200;6.080;2022-11-20T04:14:32;101167.13;;;17.64;40.81
76122;BME280;64853;53.200;6.080;2022-11-20T04:16:59;101166.59;;;17.62;40.82
76122;BME280;64853;53.200;6.080;2022-11-20T04:19:25;101171.56;;;17.60;41.09
76122;BME280;64853;53.200;6.080;2022-11-20T04:21:51;101167.94;;;17.60;40.86
76122;BME280;64853;53.200;6.080;2022-11-20T04:24:20;101163.00;;;17.62;41.02
76122;BME280;64853;53.200;6.080;2022-11-20T04:26:46;101161.09;;;17.62;41.02
76122;BME280;64853;53.200;6.080;2022-11-20T04:29:12;101161.91;;;17.63;41.23
76122;BME280;64853;53.200;6.080;2022-11-20T04:31:39;101156.66;;;17.61;40.79
76122;BME280;64853;53.200;6.080;2022-11-20T04:34:06;101156.94;;;17.60;40.79
76122;BME280;64853;53.200;6.080;2022-11-20T04:36:33;101163.00;;;17.62;40.76
76122;BME280;64853;53.200;6.080;2022-11-20T04:39:02;101160.25;;;17.62;40.91
76122;BME280;64853;53.200;6.080;2022-11-20T04:41:31;101161.09;;;17.62;40.92
76122;BME280;64853;53.200;6.080;2022-11-20T04:43:59;101158.88;;;17.64;40.64
76122;BME280;64853;53.200;6.080;2022-11-20T04:46:28;101152.00;;;17.67;40.88
76122;BME280;64853;53.200;6.080;2022-11-20T04:48:55;101157.22;;;17.74;40.82
76122;BME280;64853;53.200;6.080;2022-11-20T04:51:22;101153.09;;;17.81;40.58
76122;BME280;64853;53.200;6.080;2022-11-20T04:53:49;101150.91;;;17.88;40.72
76122;BME280;64853;53.200;6.080;2022-11-20T04:56:15;101139.31;;;17.97;40.74
76122;BME280;64853;53.200;6.080;2022-11-20T04:58:43;101140.69;;;18.04;40.64
76122;BME280;64853;53.200;6.080;2022-11-20T05:01:11;101140.41;;;18.11;40.43
76122;BME280;64853;53.200;6.080;2022-11-20T05:03:39;101133.50;;;18.19;40.58
76122;BME280;64853;53.200;6.080;2022-11-20T05:06:06;101141.19;;;18.27;40.53
76122;BME280;64853;53.200;6.080;2022-11-20T05:08:33;101140.91;;;18.34;40.46
76122;BME280;64853;53.200;6.080;2022-11-20T05:11:01;101136.50;;;18.43;40.30
76122;BME280;64853;53.200;6.080;2022-11-20T05:13:28;101127.09;;;18.49;40.33
76122;BME280;64853;53.200;6.080;2022-11-20T05:16:01;101127.34;;;18.58;40.34
76122;BME280;64853;53.200;6.080;2022-11-20T05:18:27;101128.97;;;18.64;40.18
76122;BME280;64853;53.200;6.080;2022-11-20T05:20:55;101121.22;;;18.71;40.07
76122;BME280;64853;53.200;6.080;2022-11-20T05:23:22;101126.44;;;18.78;39.89
76122;BME280;64853;53.200;6.080;2022-11-20T05:25:52;101112.31;;;18.85;39.98
76122;BME280;64853;53.200;6.080;2022-11-20T05:28:18;101123.88;;;18.92;39.92
76122;BME280;64853;53.200;6.080;2022-11-20T05:30:45;101116.38;;;18.97;39.75
76122;BME280;64853;53.200;6.080;2022-11-20T05:33:13;101123.25;;;19.05;39.80
76122;BME280;64853;53.200;6.080;2022-11-20T05:35:39;101119.34;;;19.11;39.77
76122;BME280;64853;53.200;6.080;2022-11-20T05:38:06;101117.41;;;19.17;39.83
76122;BME280;64853;53.200;6.080;2022-11-20T05:40:32;101117.91;;;19.24;39.36
76122;BME280;64853;53.200;6.080;2022-11-20T05:42:59;101120.34;;;19.31;39.42
76122;BME280;64853;53.200;6.080;2022-11-20T05:45:26;101114.81;;;19.36;39.37
76122;BME280;64853;53.200;6.080;2022-11-20T05:47:52;101116.72;;;19.41;39.53
76122;BME280;64853;53.200;6.080;2022-11-20T05:50:20;101108.09;;;19.47;39.42
76122;BME280;64853;53.200;6.080;2022-11-20T05:52:46;101116.34;;;19.52;39.16
76122;BME280;64853;53.200;6.080;2022-11-20T05:55:13;101114.88;;;19.60;39.05
76122;BME280;64853;53.200;6.080;2022-11-20T05:57:39;101123.13;;;19.65;39.23
76122;BME280;64853;53.200;6.080;2022-11-20T06:00:07;101114.78;;;19.70;39.20
76122;BME280;64853;53.200;6.080;2022-11-20T06:02:34;101121.09;;;19.76;39.08
76122;BME280;64853;53.200;6.080;2022-11-20T06:05:01;101124.38;;;19.83;38.87
76122;BME280;64853;53.200;6.080;2022-11-20T06:07:29;101125.41;;;19.87;38.78
76122;BME280;64853;53.200;6.080;2022-11-20T06:09:56;101127.31;;;19.92;38.99
76122;BME280;64853;53.200;6.080;2022-11-20T06:12:22;101128.13;;;19.98;38.83
76122;BME280;64853;53.200;6.080;2022-11-20T06:14:48;101122.56;;;20.03;38.92
76122;BME280;64853;53.200;6.080;2022-11-20T06:17:15;101122.78;;;20.07;38.61
76122;BME280;64853;53.200;6.080;2022-11-20T06:19:41;101122.72;;;20.12;38.63
76122;BME280;64853;53.200;6.080;2022-11-20T06:22:08;101122.69;;;20.17;38.72
76122;BME280;64853;53.200;6.080;2022-11-20T06:24:36;101111.34;;;20.18;38.47
76122;BME280;64853;53.200;6.080;2022-11-20T06:27:02;101110.97;;;20.25;38.46
76122;BME280;64853;53.200;6.080;2022-11-20T06:29:29;101112.88;;;20.30;38.81
76122;BME280;64853;53.200;6.080;2022-11-20T06:31:55;101111.16;;;20.34;38.77
76122;BME280;64853;53.200;6.080;2022-11-20T06:34:21;101110.56;;;20.37;38.10
76122;BME280;64853;53.200;6.080;2022-11-20T06:36:48;101106.09;;;20.41;38.22
76122;BME280;64853;53.200;6.080;2022-11-20T06:39:14;101101.59;;;20.45;38.54
76122;BME280;64853;53.200;6.080;2022-11-20T06:41:42;101097.16;;;20.49;38.42
76122;BME280;64853;53.200;6.080;2022-11-20T06:44:08;101094.91;;;20.51;38.52
76122;BME280;64853;53.200;6.080;2022-11-20T06:46:35;101104.25;;;20.55;37.99
76122;BME280;64853;53.200;6.080;2022-11-20T06:49:01;101106.44;;;20.58;37.85
76122;BME280;64853;53.200;6.080;2022-11-20T06:51:28;101113.00;;;20.63;38.25
76122;BME280;64853;53.200;6.080;2022-11-20T06:53:54;101107.19;;;20.64;37.80
76122;BME280;64853;53.200;6.080;2022-11-20T06:56:21;101114.88;;;20.67;38.21
76122;BME280;64853;53.200;6.080;2022-11-20T06:58:48;101115.16;;;20.71;37.79
76122;BME280;64853;53.200;6.080;2022-11-20T07:01:15;101120.13;;;20.74;37.63
76122;BME280;64853;53.200;6.080;2022-11-20T07:03:42;101114.00;;;20.77;38.03
76122;BME280;64853;53.200;6.080;2022-11-20T07:06:09;101111.75;;;20.79;37.61
76122;BME280;64853;53.200;6.080;2022-11-20T07:08:35;101115.03;;;20.81;37.52
76122;BME280;64853;53.200;6.080;2022-11-20T07:11:04;101111.16;;;20.82;38.03
76122;BME280;64853;53.200;6.080;2022-11-20T07:13:31;101108.91;;;20.84;37.64
76122;BME280;64853;53.200;6.080;2022-11-20T07:16:01;101109.41;;;20.86;37.99
76122;BME280;64853;53.200;6.080;2022-11-20T07:18:28;101110.47;;;20.90;37.47
76122;BME280;64853;53.200;6.080;2022-11-20T07:20:55;101109.38;;;20.91;37.65
76122;BME280;64853;53.200;6.080;2022-11-20T07:23:21;101111.84;;;20.93;37.33
76122;BME280;64853;53.200;6.080;2022-11-20T07:25:48;101109.59;;;20.95;37.40
76122;BME280;64853;53.200;6.080;2022-11-20T07:28:14;101105.72;;;20.96;37.32
76122;BME280;64853;53.200;6.080;2022-11-20T07:30:41;101099.03;;;20.97;37.32
76122;BME280;64853;53.200;6.080;2022-11-20T07:33:09;101099.69;;;20.89;37.90
76122;BME280;64853;53.200;6.080;2022-11-20T07:35:35;101104.25;;;20.80;38.21
76122;BME280;64853;53.200;6.080;2022-11-20T07:38:02;101102.41;;;20.70;38.28
76122;BME280;64853;53.200;6.080;2022-11-20T07:40:28;101089.25;;;20.62;38.24
76122;BME280;64853;53.200;6.080;2022-11-20T07:42:55;101085.72;;;20.56;38.76
76122;BME280;64853;53.200;6.080;2022-11-20T07:45:23;101084.69;;;20.52;38.98
76122;BME280;64853;53.200;6.080;2022-11-20T07:47:50;101083.84;;;20.51;38.65
76122;BME280;64853;53.200;6.080;2022-11-20T07:50:18;101082.72;;;20.52;39.53
76122;BME280;64853;53.200;6.080;2022-11-20T07:52:45;101080.53;;;20.49;39.59
76122;BME280;64853;53.200;6.080;2022-11-20T07:55:11;101083.03;;;20.51;38.49
76122;BME280;64853;53.200;6.080;2022-11-20T07:57:38;101083.25;;;20.54;38.27
76122;BME280;64853;53.200;6.080;2022-11-20T08:00:07;101080.72;;;20.58;38.55
76122;BME280;64853;53.200;6.080;2022-11-20T08:02:36;101075.72;;;20.60;37.92
76122;BME280;64853;53.200;6.080;2022-11-20T08:05:03;101071.81;;;20.61;38.06
76122;BME280;64853;53.200;6.080;2022-11-20T08:07:36;101071.00;;;20.60;38.16
76122;BME280;64853;53.200;6.080;2022-11-20T08:10:03;101078.69;;;20.64;37.69
76122;BME280;64853;53.200;6.080;2022-11-20T08:12:30;101077.59;;;20.65;38.03
76122;BME280;64853;53.200;6.080;2022-11-20T08:15:14;101079.81;;;20.63;37.91
76122;BME280;64853;53.200;6.080;2022-11-20T08:17:41;101072.66;;;20.62;38.12
76122;BME280;64853;53.200;6.080;2022-11-20T08:20:08;101082.06;;;20.60;37.77
76122;BME280;64853;53.200;6.080;2022-11-20T08:22:36;101088.72;;;20.59;37.89
76122;BME280;64853;53.200;6.080;2022-11-20T08:25:03;101078.25;;;20.56;37.52
76122;BME280;64853;53.200;6.080;2022-11-20T08:27:31;101079.38;;;20.55;37.49
76122;BME280;64853;53.200;6.080;2022-11-20T08:29:57;101072.47;;;20.53;38.04
76122;BME280;64853;53.200;6.080;2022-11-20T08:32:24;101072.25;;;20.49;37.47
76122;BME280;64853;53.200;6.080;2022-11-20T08:34:50;101074.78;;;20.46;37.89
76122;BME280;64853;53.200;6.080;2022-11-20T08:37:17;101074.53;;;20.42;37.71
76122;BME280;64853;53.200;6.080;2022-11-20T08:39:45;101075.38;;;20.42;37.88
76122;BME280;64853;53.200;6.080;2022-11-20T08:42:12;101074.53;;;20.42;37.77
76122;BME280;64853;53.200;6.080;2022-11-20T08:44:38;101077.63;;;20.40;38.04
76122;BME280;64853;53.200;6.080;2022-11-20T08:47:04;101080.69;;;20.39;37.62
76122;BME280;64853;53.200;6.080;2022-11-20T08:49:31;101077.91;;;20.39;37.68
76122;BME280;64853;53.200;6.080;2022-11-20T08:51:57;101081.78;;;20.38;37.81
76122;BME280;64853;53.200;6.080;2022-11-20T08:54:24;101085.16;;;20.35;37.45
76122;BME280;64853;53.200;6.080;2022-11-20T08:56:51;101087.41;;;20.33;37.92
76122;BME280;64853;53.200;6.080;2022-11-20T08:59:18;101081.03;;;20.32;37.94
76122;BME280;64853;53.200;6.080;2022-11-20T09:01:44;101090.16;;;20.33;38.04
76122;BME280;64853;53.200;6.080;2022-11-20T09:04:11;101081.31;;;20.31;37.61
76122;BME280;64853;53.200;6.080;2022-11-20T09:06:39;101089.09;;;20.29;38.09
76122;BME280;64853;53.200;6.080;2022-11-20T09:09:06;101087.72;;;20.26;38.01
76122;BME280;64853;53.200;6.080;2022-11-20T09:11:32;101088.56;;;20.27;37.89
76122;BME280;64853;53.200;6.080;2022-11-20T09:14:01;101084.97;;;20.26;37.94
76122;BME280;64853;53.200;6.080;2022-11-20T09:16:29;101072.34;;;20.20;37.56
76122;BME280;64853;53.200;6.080;2022-11-20T09:18:56;101079.22;;;20.22;38.01
76122;BME280;64853;53.200;6.080;2022-11-20T09:21:22;101090.78;;;20.24;38.09
76122;BME280;64853;53.200;6.080;2022-11-20T09:23:49;101078.91;;;20.24;37.87
76122;BME280;64853;53.200;6.080;2022-11-20T09:26:16;101073.16;;;20.20;37.93
76122;BME280;64853;53.200;6.080;2022-11-20T09:28:42;101069.88;;;20.18;38.27
76122;BME280;64853;53.200;6.080;2022-11-20T09:31:23;101078.47;;;20.17;37.92
76122;BME280;64853;53.200;6.080;2022-11-20T09:33:49;101069.03;;;20.18;38.04
76122;BME280;64853;53.200;6.080;2022-11-20T09:36:16;101085.91;;;20.16;38.18
76122;BME280;64853;53.200;6.080;2022-11-20T09:38:43;101076.56;;;20.12;38.34
76122;BME280;64853;53.200;6.080;2022-11-20T09:41:20;101081.53;;;20.10;38.20
76122;BME280;64853;53.200;6.080;2022-11-20T09:43:58;101079.91;;;20.09;38.16
76122;BME280;64853;53.200;6.080;2022-11-20T09:46:35;101074.91;;;20.11;38.40
76122;BME280;64853;53.200;6.080;2022-11-20T09:49:18;101066.91;;;20.10;38.05
76122;BME280;64853;53.200;6.080;2022-11-20T09:51:53;101059.72;;;20.09;38.06
76122;BME280;64853;53.200;6.080;2022-11-20T09:54:27;101051.13;;;20.10;38.27
76122;BME280;64853;53.200;6.080;2022-11-20T09:56:59;101052.78;;;20.11;37.95
76122;BME280;64853;53.200;6.080;2022-11-20T09:59:44;101055.03;;;20.09;37.89
76122;BME280;64853;53.200;6.080;2022-11-20T10:02:21;101048.66;;;20.09;37.97
76122;BME280;64853;53.200;6.080;2022-11-20T10:04:58;101050.31;;;20.10;38.01
76122;BME280;64853;53.200;6.080;2022-11-20T10:07:30;101051.13;;;20.10;38.41
76122;BME280;64853;53.200;6.080;2022-11-20T10:10:01;101047.84;;;20.08;38.12
76122;BME280;64853;53.200;6.080;2022-11-20T10:12:37;101043.97;;;20.09;38.08
76122;BME280;64853;53.200;6.080;2022-11-20T10:15:28;101041.75;;;20.11;38.35
76122;BME280;64853;53.200;6.080;2022-11-20T10:18:09;101030.69;;;20.11;38.00
76122;BME280;64853;53.200;6.080;2022-11-20T10:20:46;101038.97;;;20.11;38.04
76122;BME280;64853;53.200;6.080;2022-11-20T10:23:27;101035.09;;;20.12;37.72
76122;BME280;64853;53.200;6.080;2022-11-20T10:26:01;101038.69;;;20.13;38.04
76122;BME280;64853;53.200;6.080;2022-11-20T10:28:36;101037.88;;;20.12;38.07
76122;BME280;64853;53.200;6.080;2022-11-20T10:31:11;101039.50;;;20.13;38.29
76122;BME280;64853;53.200;6.080;2022-11-20T10:33:42;101042.25;;;20.13;38.31
76122;BME280;64853;53.200;6.080;2022-11-20T10:36:16;101034.50;;;20.15;37.97
76122;BME280;64853;53.200;6.080;2022-11-20T10:38:47;101028.44;;;20.13;37.76
76122;BME280;64853;53.200;6.080;2022-11-20T10:41:20;101022.66;;;20.34;38.60
76122;BME280;64853;53.200;6.080;2022-11-20T10:43:53;101012.22;;;20.69;37.71
76122;BME280;64853;53.200;6.080;2022-11-20T10:46:25;101004.84;;;20.83;37.79
76122;BME280;64853;53.200;6.080;2022-11-20T10:48:53;101010.03;;;20.90;37.46
76122;BME280;64853;53.200;6.080;2022-11-20T10:51:30;100995.28;;;20.94;38.10
76122;BME280;64853;53.200;6.080;2022-11-20T10:54:04;100995.28;;;20.94;37.89
76122;BME280;64853;53.200;6.080;2022-11-20T10:56:38;100998.56;;;20.97;37.92
76122;BME280;64853;53.200;6.080;2022-11-20T10:59:37;100997.66;;;21.01;37.82
76122;BME280;64853;53.200;6.080;2022-11-20T11:02:15;100993.75;;;21.02;37.72
76122;BME280;64853;53.200;6.080;2022-11-20T11:04:45;100988.22;;;21.02;37.50
76122;BME280;64853;53.200;6.080;2022-11-20T11:07:16;100983.72;;;21.06;37.50
76122;BME280;64853;53.200;6.080;2022-11-20T11:09:48;100979.84;;;21.07;37.61
76122;BME280;64853;53.200;6.080;2022-11-20T11:12:15;100974.00;;;21.09;37.66
76122;BME280;64853;53.200;6.080;2022-11-20T11:14:47;100970.63;;;21.12;37.50
76122;BME280;64853;53.200;6.080;2022-11-20T11:17:22;100970.84;;;21.16;37.81
76122;BME280;64853;53.200;6.080;2022-11-20T11:20:02;100965.00;;;21.17;37.90
76122;BME280;64853;53.200;6.080;2022-11-20T11:22:31;100967.97;;;21.21;37.36
76122;BME280;64853;53.200;6.080;2022-11-20T11:24:59;100962.63;;;21.24;37.41
76122;BME280;64853;53.200;6.080;2022-11-20T11:27:25;100956.50;;;21.27;37.25
76122;BME280;64853;53.200;6.080;2022-11-20T11:30:02;100945.50;;;21.22;37.56
76122;BME280;64853;53.200;6.080;2022-11-20T11:32:29;100942.34;;;21.29;37.50
76122;BME280;64853;53.200;6.080;2022-11-20T11:35:01;100945.84;;;21.35;37.27
76122;BME280;64853;53.200;6.080;2022-11-20T11:37:33;100935.06;;;21.33;37.60
76122;BME280;64853;53.200;6.080;2022-11-20T11:40:00;100929.53;;;21.33;37.33
76122;BME280;64853;53.200;6.080;2022-11-20T11:42:27;100930.66;;;21.32;37.73
76122;BME280;64853;53.200;6.080;2022-11-20T11:44:57;100926.78;;;21.33;37.22
76122;BME280;64853;53.200;6.080;2022-11-20T11:47:35;100918.47;;;21.33;37.15
76122;BME280;64853;53.200;6.080;2022-11-20T11:50:14;100905.41;;;21.34;37.15
76122;BME280;64853;53.200;6.080;2022-11-20T11:52:43;100902.34;;;21.35;37.41
76122;BME280;64853;53.200;6.080;2022-11-20T11:55:16;100903.81;;;21.32;37.29
76122;BME280;64853;53.200;6.080;2022-11-20T11:57:48;100901.72;;;21.24;37.17
76122;BME280;64853;53.200;6.080;2022-11-20T12:00:18;100888.88;;;21.14;37.00
76122;BME280;64853;53.200;6.080;2022-11-20T12:02:56;100884.66;;;21.03;37.08
76122;BME280;64853;53.200;6.080;2022-11-20T12:05:31;100893.28;;;21.02;37.27
76122;BME280;64853;53.200;6.080;2022-11-20T12:08:04;100900.53;;;20.98;36.81
76122;BME280;64853;53.200;6.080;2022-11-20T12:10:40;100897.34;;;20.90;37.22
76122;BME280;64853;53.200;6.080;2022-11-20T12:13:30;100898.56;;;20.84;37.44
76122;BME280;64853;53.200;6.080;2022-11-20T12:16:01;100902.53;;;20.78;37.51
76122;BME280;64853;53.200;6.080;2022-11-20T12:18:29;100896.53;;;20.71;36.81
76122;BME280;64853;53.200;6.080;2022-11-20T12:21:07;100894.97;;;20.65;36.78
76122;BME280;64853;53.200;6.080;2022-11-20T12:23:44;100885.22;;;20.53;36.03
76122;BME280;64853;53.200;6.080;2022-11-20T12:26:21;100877.56;;;20.45;34.48
76122;BME280;64853;53.200;6.080;2022-11-20T12:29:00;100880.72;;;20.38;33.15
76122;BME280;64853;53.200;6.080;2022-11-20T12:34:27;100873.31;;;20.15;31.23
76122;BME280;64853;53.200;6.080;2022-11-20T12:37:06;100871.75;;;20.09;32.99
76122;BME280;64853;53.200;6.080;2022-11-20T12:39:41;100868.97;;;20.09;33.28
76122;BME280;64853;53.200;6.080;2022-11-20T12:48:38;100841.56;;;20.31;33.45
76122;BME280;64853;53.200;6.080;2022-11-20T12:51:38;100832.97;;;20.33;33.80
76122;BME280;64853;53.200;6.080;2022-11-20T12:57:11;100826.25;;;20.39;34.46
76122;BME280;64853;53.200;6.080;2022-11-20T13:00:07;100824.00;;;20.41;34.27
76122;BME280;64853;53.200;6.080;2022-11-20T13:02:44;100825.63;;;20.42;34.62
76122;BME280;64853;53.200;6.080;2022-11-20T13:05:19;100828.94;;;20.44;34.56
76122;BME280;64853;53.200;6.080;2022-11-20T13:07:48;100828.31;;;20.47;34.63
76122;BME280;64853;53.200;6.080;2022-11-20T13:10:25;100822.50;;;20.49;34.89
76122;BME280;64853;53.200;6.080;2022-11-20T13:12:58;100827.72;;;20.50;34.99
76122;BME280;64853;53.200;6.080;2022-11-20T13:15:35;100819.94;;;20.52;34.74